sensor_id;sensor_type;location;lat;lon;timestamp;P1;durP1;ratioP1;P2;durP2;ratioP2
19396;SDS011;9834;48.076;11.878;2023-11-21T00:01:15;1.50;;;1.23;;
19396;SDS011;9834;48.076;11.878;2023-11-21T00:03:43;5.33;;;1.50;;
19396;SDS011;9834;48.076;11.878;2023-11-21T00:06:12;5.20;;;1.70;;
19396;SDS011;9834;48.076;11.878;2023-11-21T00:08:39;2.37;;;1.33;;
19396;SDS011;9834;48.076;11.878;2023-11-21T00:11:10;4.73;;;1.40;;
19396;SDS011;9834;48.076;11.878;2023-11-21T00:13:41;2.67;;;1.87;;
19396;SDS011;9834;48.076;11.878;2023-11-21T00:16:09;2.23;;;1.10;;
19396;SDS011;9834;48.076;11.878;2023-11-21T00:18:39;1.67;;;1.10;;
19396;SDS011;9834;48.076;11.878;2023-11-21T00:21:12;0.80;;;0.80;;
19396;SDS011;9834;48.076;11.878;2023-11-21T00:23:44;1.07;;;0.97;;
19396;SDS011;9834;48.076;11.878;2023-11-21T00:26:25;1.40;;;1.17;;
19396;SDS011;9834;48.076;11.878;2023-11-21T00:29:01;2.83;;;1.00;;
19396;SDS011;9834;48.076;11.878;2023-11-21T00:31:33;0.93;;;0.87;;
19396;SDS011;9834;48.076;11.878;2023-11-21T00:34:04;1.10;;;0.80;;
19396;SDS011;9834;48.076;11.878;2023-11-21T00:36:41;1.77;;;1.13;;
19396;SDS011;9834;48.076;11.878;2023-11-21T00:39:17;3.00;;;1.60;;
19396;SDS011;9834;48.076;11.878;2023-11-21T00:41:46;1.53;;;1.13;;
19396;SDS011;9834;48.076;11.878;2023-11-21T00:44:16;6.33;;;1.57;;
19396;SDS011;9834;48.076;11.878;2023-11-21T00:46:43;0.60;;;0.60;;
19396;SDS011;9834;48.076;11.878;2023-11-21T00:49:10;1.10;;;0.90;;
19396;SDS011;9834;48.076;11.878;2023-11-21T00:51:41;0.90;;;0.90;;
19396;SDS011;9834;48.076;11.878;2023-11-21T00:54:08;1.60;;;1.10;;
19396;SDS011;9834;48.076;11.878;2023-11-21T00:56:36;4.27;;;1.43;;
19396;SDS011;9834;48.076;11.878;2023-11-21T00:59:06;4.13;;;1.30;;
19396;SDS011;9834;48.076;11.878;2023-11-21T01:01:46;1.03;;;0.80;;
19396;SDS011;9834;48.076;11.878;2023-11-21T01:04:18;2.30;;;1.30;;
19396;SDS011;9834;48.076;11.878;2023-11-21T01:06:45;4.33;;;1.30;;
19396;SDS011;9834;48.076;11.878;2023-11-21T01:09:13;1.40;;;1.10;;
19396;SDS011;9834;48.076;11.878;2023-11-21T01:11:42;5.30;;;1.10;;
19396;SDS011;9834;48.076;11.878;2023-11-21T01:14:13;1.67;;;1.23;;
19396;SDS011;9834;48.076;11.878;2023-11-21T01:16:46;1.10;;;1.00;;
19396;SDS011;9834;48.076;11.878;2023-11-21T01:19:14;2.50;;;1.17;;
19396;SDS011;9834;48.076;11.878;2023-11-21T01:21:47;1.80;;;1.20;;
19396;SDS011;9834;48.076;11.878;2023-11-21T01:24:15;0.87;;;0.70;;
19396;SDS011;9834;48.076;11.878;2023-11-21T01:26:42;3.23;;;0.93;;
19396;SDS011;9834;48.076;11.878;2023-11-21T01:29:13;0.93;;;0.80;;
19396;SDS011;9834;48.076;11.878;2023-11-21T01:31:41;1.20;;;0.90;;
19396;SDS011;9834;48.076;11.878;2023-11-21T01:34:08;2.67;;;0.80;;
19396;SDS011;9834;48.076;11.878;2023-11-21T01:36:38;3.83;;;0.70;;
19396;SDS011;9834;48.076;11.878;2023-11-21T01:39:06;0.50;;;0.50;;
19396;SDS011;9834;48.076;11.878;2023-11-21T01:41:36;0.63;;;0.63;;
19396;SDS011;9834;48.076;11.878;2023-11-21T01:44:05;1.57;;;0.90;;
19396;SDS011;9834;48.076;11.878;2023-11-21T01:46:36;2.47;;;0.60;;
19396;SDS011;9834;48.076;11.878;2023-11-21T01:49:04;1.27;;;0.70;;
19396;SDS011;9834;48.076;11.878;2023-11-21T01:51:38;1.03;;;0.87;;
19396;SDS011;9834;48.076;11.878;2023-11-21T01:54:06;0.50;;;0.30;;
19396;SDS011;9834;48.076;11.878;2023-11-21T01:56:33;0.67;;;0.63;;
19396;SDS011;9834;48.076;11.878;2023-11-21T01:59:17;1.10;;;0.50;;
19396;SDS011;9834;48.076;11.878;2023-11-21T02:01:54;1.10;;;0.80;;
19396;SDS011;9834;48.076;11.878;2023-11-21T02:04:26;0.90;;;0.83;;
19396;SDS011;9834;48.076;11.878;2023-11-21T02:06:58;3.43;;;0.77;;
19396;SDS011;9834;48.076;11.878;2023-11-21T02:09:30;0.93;;;0.60;;
19396;SDS011;9834;48.076;11.878;2023-11-21T02:12:02;1.53;;;0.80;;
19396;SDS011;9834;48.076;11.878;2023-11-21T02:14:32;1.07;;;0.97;;
19396;SDS011;9834;48.076;11.878;2023-11-21T02:17:01;0.33;;;0.30;;
19396;SDS011;9834;48.076;11.878;2023-11-21T02:19:28;0.40;;;0.40;;
19396;SDS011;9834;48.076;11.878;2023-11-21T02:22:02;2.67;;;1.17;;
19396;SDS011;9834;48.076;11.878;2023-11-21T02:24:37;0.83;;;0.83;;
19396;SDS011;9834;48.076;11.878;2023-11-21T02:27:04;0.50;;;0.50;;
19396;SDS011;9834;48.076;11.878;2023-11-21T02:29:32;1.80;;;0.90;;
19396;SDS011;9834;48.076;11.878;2023-11-21T02:32:05;2.13;;;0.70;;
19396;SDS011;9834;48.076;11.878;2023-11-21T02:34:40;3.47;;;0.80;;
19396;SDS011;9834;48.076;11.878;2023-11-21T02:37:08;0.77;;;0.70;;
19396;SDS011;9834;48.076;11.878;2023-11-21T02:39:39;6.73;;;0.97;;
19396;SDS011;9834;48.076;11.878;2023-11-21T02:42:06;5.13;;;0.90;;
19396;SDS011;9834;48.076;11.878;2023-11-21T02:44:41;2.67;;;1.13;;
19396;SDS011;9834;48.076;11.878;2023-11-21T02:47:08;1.83;;;1.17;;
19396;SDS011;9834;48.076;11.878;2023-11-21T02:49:36;1.00;;;0.90;;
19396;SDS011;9834;48.076;11.878;2023-11-21T02:52:06;0.57;;;0.57;;
19396;SDS011;9834;48.076;11.878;2023-11-21T02:54:42;2.70;;;1.10;;
19396;SDS011;9834;48.076;11.878;2023-11-21T02:57:16;2.37;;;1.00;;
19396;SDS011;9834;48.076;11.878;2023-11-21T02:59:43;2.33;;;0.97;;
19396;SDS011;9834;48.076;11.878;2023-11-21T03:02:11;1.87;;;0.70;;
19396;SDS011;9834;48.076;11.878;2023-11-21T03:04:38;7.37;;;0.80;;
19396;SDS011;9834;48.076;11.878;2023-11-21T03:07:05;3.27;;;1.00;;
19396;SDS011;9834;48.076;11.878;2023-11-21T03:09:36;3.13;;;0.80;;
19396;SDS011;9834;48.076;11.878;2023-11-21T03:12:05;2.23;;;1.10;;
19396;SDS011;9834;48.076;11.878;2023-11-21T03:14:36;1.23;;;0.70;;
19396;SDS011;9834;48.076;11.878;2023-11-21T03:17:12;4.00;;;1.20;;
19396;SDS011;9834;48.076;11.878;2023-11-21T03:19:43;4.70;;;1.00;;
19396;SDS011;9834;48.076;11.878;2023-11-21T03:22:19;2.87;;;0.80;;
19396;SDS011;9834;48.076;11.878;2023-11-21T03:24:49;4.03;;;0.77;;
19396;SDS011;9834;48.076;11.878;2023-11-21T03:27:22;7.63;;;1.27;;
19396;SDS011;9834;48.076;11.878;2023-11-21T03:29:52;1.63;;;0.70;;
19396;SDS011;9834;48.076;11.878;2023-11-21T03:32:20;3.97;;;0.90;;
19396;SDS011;9834;48.076;11.878;2023-11-21T03:34:55;10.20;;;1.27;;
19396;SDS011;9834;48.076;11.878;2023-11-21T03:37:27;1.70;;;1.13;;
19396;SDS011;9834;48.076;11.878;2023-11-21T03:39:54;2.50;;;0.40;;
19396;SDS011;9834;48.076;11.878;2023-11-21T03:42:26;0.70;;;0.70;;
19396;SDS011;9834;48.076;11.878;2023-11-21T03:44:58;9.83;;;0.90;;
19396;SDS011;9834;48.076;11.878;2023-11-21T03:47:26;0.83;;;0.60;;
19396;SDS011;9834;48.076;11.878;2023-11-21T03:49:57;2.63;;;0.77;;
19396;SDS011;9834;48.076;11.878;2023-11-21T03:52:29;1.67;;;0.83;;
19396;SDS011;9834;48.076;11.878;2023-11-21T03:54:59;1.70;;;0.80;;
19396;SDS011;9834;48.076;11.878;2023-11-21T03:57:28;2.00;;;0.80;;
19396;SDS011;9834;48.076;11.878;2023-11-21T03:59:56;1.73;;;0.90;;
19396;SDS011;9834;48.076;11.878;2023-11-21T04:02:26;3.10;;;0.73;;
19396;SDS011;9834;48.076;11.878;2023-11-21T04:04:53;0.80;;;0.80;;
19396;SDS011;9834;48.076;11.878;2023-11-21T04:07:27;2.73;;;0.90;;
19396;SDS011;9834;48.076;11.878;2023-11-21T04:10:03;2.47;;;0.50;;
19396;SDS011;9834;48.076;11.878;2023-11-21T04:12:37;0.73;;;0.70;;
19396;SDS011;9834;48.076;11.878;2023-11-21T04:15:05;2.10;;;0.50;;
19396;SDS011;9834;48.076;11.878;2023-11-21T04:17:36;0.70;;;0.50;;
19396;SDS011;9834;48.076;11.878;2023-11-21T04:20:04;3.57;;;0.73;;
19396;SDS011;9834;48.076;11.878;2023-11-21T04:22:36;3.20;;;0.87;;
19396;SDS011;9834;48.076;11.878;2023-11-21T04:25:12;0.90;;;0.63;;
19396;SDS011;9834;48.076;11.878;2023-11-21T04:27:44;0.50;;;0.50;;
19396;SDS011;9834;48.076;11.878;2023-11-21T04:30:12;2.77;;;0.63;;
19396;SDS011;9834;48.076;11.878;2023-11-21T04:32:40;0.77;;;0.70;;
19396;SDS011;9834;48.076;11.878;2023-11-21T04:35:08;1.90;;;0.53;;
19396;SDS011;9834;48.076;11.878;2023-11-21T04:37:36;4.70;;;0.60;;
19396;SDS011;9834;48.076;11.878;2023-11-21T04:40:04;2.17;;;0.70;;
19396;SDS011;9834;48.076;11.878;2023-11-21T04:42:39;1.47;;;0.67;;
19396;SDS011;9834;48.076;11.878;2023-11-21T04:45:15;5.93;;;0.70;;
19396;SDS011;9834;48.076;11.878;2023-11-21T04:47:42;0.43;;;0.30;;
19396;SDS011;9834;48.076;11.878;2023-11-21T04:50:10;0.63;;;0.60;;
19396;SDS011;9834;48.076;11.878;2023-11-21T04:52:37;0.63;;;0.60;;
19396;SDS011;9834;48.076;11.878;2023-11-21T04:55:05;1.00;;;0.40;;
19396;SDS011;9834;48.076;11.878;2023-11-21T04:57:35;0.60;;;0.60;;
19396;SDS011;9834;48.076;11.878;2023-11-21T05:00:07;0.57;;;0.50;;
19396;SDS011;9834;48.076;11.878;2023-11-21T05:02:37;1.67;;;0.47;;
19396;SDS011;9834;48.076;11.878;2023-11-21T05:05:09;1.40;;;0.67;;
19396;SDS011;9834;48.076;11.878;2023-11-21T05:07:38;4.80;;;0.80;;
19396;SDS011;9834;48.076;11.878;2023-11-21T05:10:09;0.53;;;0.53;;
19396;SDS011;9834;48.076;11.878;2023-11-21T05:12:40;0.40;;;0.40;;
19396;SDS011;9834;48.076;11.878;2023-11-21T05:15:13;1.47;;;0.50;;
19396;SDS011;9834;48.076;11.878;2023-11-21T05:18:09;0.53;;;0.53;;
19396;SDS011;9834;48.076;11.878;2023-11-21T05:20:39;0.53;;;0.33;;
19396;SDS011;9834;48.076;11.878;2023-11-21T05:23:08;0.63;;;0.57;;
19396;SDS011;9834;48.076;11.878;2023-11-21T05:25:43;2.67;;;0.70;;
19396;SDS011;9834;48.076;11.878;2023-11-21T05:28:13;0.87;;;0.70;;
19396;SDS011;9834;48.076;11.878;2023-11-21T05:30:41;0.40;;;0.40;;
19396;SDS011;9834;48.076;11.878;2023-11-21T05:33:12;2.57;;;0.63;;
19396;SDS011;9834;48.076;11.878;2023-11-21T05:35:42;3.27;;;0.93;;
19396;SDS011;9834;48.076;11.878;2023-11-21T05:38:13;1.03;;;0.73;;
19396;SDS011;9834;48.076;11.878;2023-11-21T05:40:44;0.67;;;0.60;;
19396;SDS011;9834;48.076;11.878;2023-11-21T05:43:14;1.53;;;0.80;;
19396;SDS011;9834;48.076;11.878;2023-11-21T05:45:42;1.53;;;0.70;;
19396;SDS011;9834;48.076;11.878;2023-11-21T05:48:11;3.60;;;0.57;;
19396;SDS011;9834;48.076;11.878;2023-11-21T05:50:38;1.77;;;0.90;;
19396;SDS011;9834;48.076;11.878;2023-11-21T05:53:07;1.60;;;0.80;;
19396;SDS011;9834;48.076;11.878;2023-11-21T05:55:45;1.90;;;0.87;;
19396;SDS011;9834;48.076;11.878;2023-11-21T05:58:15;1.17;;;0.73;;
19396;SDS011;9834;48.076;11.878;2023-11-21T06:00:49;1.43;;;0.63;;
19396;SDS011;9834;48.076;11.878;2023-11-21T06:03:20;1.10;;;0.63;;
19396;SDS011;9834;48.076;11.878;2023-11-21T06:05:48;1.10;;;0.73;;
19396;SDS011;9834;48.076;11.878;2023-11-21T06:08:15;0.87;;;0.80;;
19396;SDS011;9834;48.076;11.878;2023-11-21T06:10:44;0.80;;;0.70;;
19396;SDS011;9834;48.076;11.878;2023-11-21T06:13:14;1.20;;;0.87;;
19396;SDS011;9834;48.076;11.878;2023-11-21T06:15:41;2.37;;;0.70;;
19396;SDS011;9834;48.076;11.878;2023-11-21T06:18:12;1.77;;;0.73;;
19396;SDS011;9834;48.076;11.878;2023-11-21T06:21:04;1.10;;;0.63;;
19396;SDS011;9834;48.076;11.878;2023-11-21T06:23:31;4.03;;;0.77;;
19396;SDS011;9834;48.076;11.878;2023-11-21T06:26:05;1.00;;;0.53;;
19396;SDS011;9834;48.076;11.878;2023-11-21T06:28:35;1.10;;;0.97;;
19396;SDS011;9834;48.076;11.878;2023-11-21T06:31:03;4.93;;;0.70;;
19396;SDS011;9834;48.076;11.878;2023-11-21T06:33:31;0.87;;;0.77;;
19396;SDS011;9834;48.076;11.878;2023-11-21T06:36:01;1.33;;;0.50;;
19396;SDS011;9834;48.076;11.878;2023-11-21T06:38:31;5.70;;;0.90;;
19396;SDS011;9834;48.076;11.878;2023-11-21T06:41:05;0.30;;;0.30;;
19396;SDS011;9834;48.076;11.878;2023-11-21T06:43:33;0.50;;;0.50;;
19396;SDS011;9834;48.076;11.878;2023-11-21T06:46:01;3.37;;;0.60;;
19396;SDS011;9834;48.076;11.878;2023-11-21T06:48:29;0.87;;;0.60;;
19396;SDS011;9834;48.076;11.878;2023-11-21T06:50:57;1.13;;;0.47;;
19396;SDS011;9834;48.076;11.878;2023-11-21T06:53:25;2.50;;;0.57;;
19396;SDS011;9834;48.076;11.878;2023-11-21T06:55:56;0.87;;;0.47;;
19396;SDS011;9834;48.076;11.878;2023-11-21T06:58:34;0.53;;;0.53;;
19396;SDS011;9834;48.076;11.878;2023-11-21T07:01:05;3.60;;;0.47;;
19396;SDS011;9834;48.076;11.878;2023-11-21T07:03:32;0.40;;;0.40;;
19396;SDS011;9834;48.076;11.878;2023-11-21T07:05:59;0.33;;;0.33;;
19396;SDS011;9834;48.076;11.878;2023-11-21T07:08:42;1.23;;;0.67;;
19396;SDS011;9834;48.076;11.878;2023-11-21T07:11:12;0.37;;;0.30;;
19396;SDS011;9834;48.076;11.878;2023-11-21T07:13:56;1.70;;;0.50;;
19396;SDS011;9834;48.076;11.878;2023-11-21T07:16:30;0.70;;;0.70;;
19396;SDS011;9834;48.076;11.878;2023-11-21T07:19:04;2.50;;;0.60;;
19396;SDS011;9834;48.076;11.878;2023-11-21T07:21:32;1.67;;;0.77;;
19396;SDS011;9834;48.076;11.878;2023-11-21T07:24:05;1.87;;;0.60;;
19396;SDS011;9834;48.076;11.878;2023-11-21T07:26:43;0.67;;;0.50;;
19396;SDS011;9834;48.076;11.878;2023-11-21T07:29:11;0.47;;;0.40;;
19396;SDS011;9834;48.076;11.878;2023-11-21T07:31:38;0.83;;;0.70;;
19396;SDS011;9834;48.076;11.878;2023-11-21T07:34:06;2.23;;;0.57;;
19396;SDS011;9834;48.076;11.878;2023-11-21T07:36:34;0.57;;;0.57;;
19396;SDS011;9834;48.076;11.878;2023-11-21T07:39:01;0.40;;;0.40;;
19396;SDS011;9834;48.076;11.878;2023-11-21T07:41:30;2.53;;;0.50;;
19396;SDS011;9834;48.076;11.878;2023-11-21T07:43:57;0.40;;;0.40;;
19396;SDS011;9834;48.076;11.878;2023-11-21T07:46:25;0.43;;;0.43;;
19396;SDS011;9834;48.076;11.878;2023-11-21T07:48:53;0.40;;;0.40;;
19396;SDS011;9834;48.076;11.878;2023-11-21T07:51:24;0.30;;;0.30;;
19396;SDS011;9834;48.076;11.878;2023-11-21T07:53:51;0.30;;;0.30;;
19396;SDS011;9834;48.076;11.878;2023-11-21T07:56:27;2.30;;;0.77;;
19396;SDS011;9834;48.076;11.878;2023-11-21T07:58:55;0.53;;;0.50;;
19396;SDS011;9834;48.076;11.878;2023-11-21T08:01:23;1.37;;;0.53;;
19396;SDS011;9834;48.076;11.878;2023-11-21T08:03:54;0.87;;;0.77;;
19396;SDS011;9834;48.076;11.878;2023-11-21T08:06:27;2.03;;;0.87;;
19396;SDS011;9834;48.076;11.878;2023-11-21T08:08:54;0.40;;;0.40;;
19396;SDS011;9834;48.076;11.878;2023-11-21T08:11:22;1.97;;;1.03;;
19396;SDS011;9834;48.076;11.878;2023-11-21T08:13:49;0.77;;;0.60;;
19396;SDS011;9834;48.076;11.878;2023-11-21T08:16:18;0.50;;;0.50;;
19396;SDS011;9834;48.076;11.878;2023-11-21T08:18:49;0.30;;;0.30;;
19396;SDS011;9834;48.076;11.878;2023-11-21T08:21:20;3.83;;;0.60;;
19396;SDS011;9834;48.076;11.878;2023-11-21T08:23:49;0.50;;;0.50;;
19396;SDS011;9834;48.076;11.878;2023-11-21T08:26:20;1.33;;;0.80;;
19396;SDS011;9834;48.076;11.878;2023-11-21T08:28:47;0.30;;;0.30;;
19396;SDS011;9834;48.076;11.878;2023-11-21T08:31:22;1.33;;;0.60;;
19396;SDS011;9834;48.076;11.878;2023-11-21T08:33:51;1.33;;;0.73;;
19396;SDS011;9834;48.076;11.878;2023-11-21T08:36:22;1.37;;;0.60;;
19396;SDS011;9834;48.076;11.878;2023-11-21T08:38:52;0.30;;;0.30;;
19396;SDS011;9834;48.076;11.878;2023-11-21T08:41:23;0.77;;;0.40;;
19396;SDS011;9834;48.076;11.878;2023-11-21T08:43:53;0.53;;;0.40;;
19396;SDS011;9834;48.076;11.878;2023-11-21T08:46:22;2.10;;;0.57;;
19396;SDS011;9834;48.076;11.878;2023-11-21T08:48:51;0.40;;;0.40;;
19396;SDS011;9834;48.076;11.878;2023-11-21T08:51:24;0.63;;;0.30;;
19396;SDS011;9834;48.076;11.878;2023-11-21T08:53:52;0.40;;;0.40;;
19396;SDS011;9834;48.076;11.878;2023-11-21T08:56:20;3.57;;;0.57;;
19396;SDS011;9834;48.076;11.878;2023-11-21T08:58:50;0.63;;;0.50;;
19396;SDS011;9834;48.076;11.878;2023-11-21T09:01:20;0.30;;;0.30;;
19396;SDS011;9834;48.076;11.878;2023-11-21T09:03:53;0.40;;;0.40;;
19396;SDS011;9834;48.076;11.878;2023-11-21T09:06:20;1.50;;;0.60;;
19396;SDS011;9834;48.076;11.878;2023-11-21T09:08:48;0.97;;;0.50;;
19396;SDS011;9834;48.076;11.878;2023-11-21T09:11:15;0.83;;;0.67;;
19396;SDS011;9834;48.076;11.878;2023-11-21T09:13:44;0.40;;;0.40;;
19396;SDS011;9834;48.076;11.878;2023-11-21T09:16:19;0.53;;;0.50;;
19396;SDS011;9834;48.076;11.878;2023-11-21T09:18:49;0.70;;;0.40;;
19396;SDS011;9834;48.076;11.878;2023-11-21T09:21:18;0.30;;;0.30;;
19396;SDS011;9834;48.076;11.878;2023-11-21T09:23:45;0.63;;;0.50;;
19396;SDS011;9834;48.076;11.878;2023-11-21T09:26:15;2.37;;;0.70;;
19396;SDS011;9834;48.076;11.878;2023-11-21T09:28:44;0.40;;;0.40;;
19396;SDS011;9834;48.076;11.878;2023-11-21T09:31:15;0.90;;;0.67;;
19396;SDS011;9834;48.076;11.878;2023-11-21T09:33:42;1.40;;;0.73;;
19396;SDS011;9834;48.076;11.878;2023-11-21T09:36:17;0.77;;;0.40;;
19396;SDS011;9834;48.076;11.878;2023-11-21T09:38:55;0.50;;;0.30;;
19396;SDS011;9834;48.076;11.878;2023-11-21T09:41:25;1.40;;;0.73;;
19396;SDS011;9834;48.076;11.878;2023-11-21T09:44:00;1.10;;;0.83;;
19396;SDS011;9834;48.076;11.878;2023-11-21T09:46:36;2.20;;;0.63;;
19396;SDS011;9834;48.076;11.878;2023-11-21T09:49:06;1.80;;;0.50;;
19396;SDS011;9834;48.076;11.878;2023-11-21T09:51:43;1.90;;;0.63;;
19396;SDS011;9834;48.076;11.878;2023-11-21T09:54:15;1.07;;;0.93;;
19396;SDS011;9834;48.076;11.878;2023-11-21T09:56:44;3.63;;;0.83;;
19396;SDS011;9834;48.076;11.878;2023-11-21T09:59:22;0.63;;;0.50;;
19396;SDS011;9834;48.076;11.878;2023-11-21T10:01:50;4.03;;;0.73;;
19396;SDS011;9834;48.076;11.878;2023-11-21T10:04:23;0.40;;;0.40;;
19396;SDS011;9834;48.076;11.878;2023-11-21T10:06:53;1.60;;;0.50;;
19396;SDS011;9834;48.076;11.878;2023-11-21T10:09:22;0.47;;;0.30;;
19396;SDS011;9834;48.076;11.878;2023-11-21T10:11:52;1.80;;;0.40;;
19396;SDS011;9834;48.076;11.878;2023-11-21T10:14:28;1.50;;;0.57;;
19396;SDS011;9834;48.076;11.878;2023-11-21T10:16:56;0.40;;;0.30;;
19396;SDS011;9834;48.076;11.878;2023-11-21T10:19:28;1.23;;;0.53;;
19396;SDS011;9834;48.076;11.878;2023-11-21T10:21:57;0.63;;;0.40;;
19396;SDS011;9834;48.076;11.878;2023-11-21T10:24:41;2.23;;;0.60;;
19396;SDS011;9834;48.076;11.878;2023-11-21T10:27:11;0.27;;;0.27;;
19396;SDS011;9834;48.076;11.878;2023-11-21T10:29:41;0.83;;;0.43;;
19396;SDS011;9834;48.076;11.878;2023-11-21T10:32:09;2.27;;;0.57;;
19396;SDS011;9834;48.076;11.878;2023-11-21T10:34:41;1.53;;;0.60;;
19396;SDS011;9834;48.076;11.878;2023-11-21T10:37:23;1.23;;;0.47;;
19396;SDS011;9834;48.076;11.878;2023-11-21T10:39:57;0.63;;;0.30;;
19396;SDS011;9834;48.076;11.878;2023-11-21T10:42:27;1.13;;;0.60;;
19396;SDS011;9834;48.076;11.878;2023-11-21T10:44:55;0.20;;;0.20;;
19396;SDS011;9834;48.076;11.878;2023-11-21T10:47:40;0.53;;;0.40;;
19396;SDS011;9834;48.076;11.878;2023-11-21T10:50:09;1.40;;;0.80;;
19396;SDS011;9834;48.076;11.878;2023-11-21T10:52:38;0.57;;;0.57;;
19396;SDS011;9834;48.076;11.878;2023-11-21T10:55:17;0.97;;;0.77;;
19396;SDS011;9834;48.076;11.878;2023-11-21T10:57:46;4.27;;;0.67;;
19396;SDS011;9834;48.076;11.878;2023-11-21T11:00:16;0.63;;;0.50;;
19396;SDS011;9834;48.076;11.878;2023-11-21T11:02:46;1.33;;;0.60;;
19396;SDS011;9834;48.076;11.878;2023-11-21T11:05:21;0.90;;;0.77;;
19396;SDS011;9834;48.076;11.878;2023-11-21T11:07:55;2.33;;;0.50;;
19396;SDS011;9834;48.076;11.878;2023-11-21T11:10:29;0.63;;;0.47;;
19396;SDS011;9834;48.076;11.878;2023-11-21T11:12:56;0.30;;;0.30;;
19396;SDS011;9834;48.076;11.878;2023-11-21T11:15:25;0.57;;;0.50;;
19396;SDS011;9834;48.076;11.878;2023-11-21T11:17:56;0.63;;;0.60;;
19396;SDS011;9834;48.076;11.878;2023-11-21T11:20:24;1.90;;;0.67;;
19396;SDS011;9834;48.076;11.878;2023-11-21T11:22:59;0.43;;;0.43;;
19396;SDS011;9834;48.076;11.878;2023-11-21T11:25:53;0.80;;;0.80;;
19396;SDS011;9834;48.076;11.878;2023-11-21T11:28:37;1.30;;;0.60;;
19396;SDS011;9834;48.076;11.878;2023-11-21T11:31:11;0.47;;;0.47;;
19396;SDS011;9834;48.076;11.878;2023-11-21T11:33:53;1.07;;;0.50;;
19396;SDS011;9834;48.076;11.878;2023-11-21T11:36:39;1.43;;;0.73;;
19396;SDS011;9834;48.076;11.878;2023-11-21T11:39:35;1.20;;;0.57;;
19396;SDS011;9834;48.076;11.878;2023-11-21T11:42:08;0.70;;;0.60;;
19396;SDS011;9834;48.076;11.878;2023-11-21T11:44:46;1.53;;;0.43;;
19396;SDS011;9834;48.076;11.878;2023-11-21T11:47:20;0.50;;;0.50;;
19396;SDS011;9834;48.076;11.878;2023-11-21T11:50:07;0.70;;;0.53;;
19396;SDS011;9834;48.076;11.878;2023-11-21T11:52:39;1.33;;;0.60;;
19396;SDS011;9834;48.076;11.878;2023-11-21T11:55:12;0.80;;;0.70;;
19396;SDS011;9834;48.076;11.878;2023-11-21T11:57:47;1.00;;;0.80;;
19396;SDS011;9834;48.076;11.878;2023-11-21T12:00:16;2.27;;;0.70;;
19396;SDS011;9834;48.076;11.878;2023-11-21T12:02:56;2.30;;;0.77;;
19396;SDS011;9834;48.076;11.878;2023-11-21T12:05:25;0.40;;;0.33;;
19396;SDS011;9834;48.076;11.878;2023-11-21T12:07:58;3.57;;;0.60;;
19396;SDS011;9834;48.076;11.878;2023-11-21T12:10:31;0.70;;;0.57;;
19396;SDS011;9834;48.076;11.878;2023-11-21T12:13:00;0.50;;;0.40;;
19396;SDS011;9834;48.076;11.878;2023-11-21T12:15:30;0.97;;;0.60;;
19396;SDS011;9834;48.076;11.878;2023-11-21T12:18:00;0.63;;;0.63;;
19396;SDS011;9834;48.076;11.878;2023-11-21T12:20:29;0.30;;;0.30;;
19396;SDS011;9834;48.076;11.878;2023-11-21T12:22:57;1.53;;;0.40;;
19396;SDS011;9834;48.076;11.878;2023-11-21T12:25:26;2.07;;;0.43;;
19396;SDS011;9834;48.076;11.878;2023-11-21T12:27:56;1.03;;;0.50;;
19396;SDS011;9834;48.076;11.878;2023-11-21T12:30:29;1.20;;;0.50;;
19396;SDS011;9834;48.076;11.878;2023-11-21T12:33:01;1.00;;;0.67;;
19396;SDS011;9834;48.076;11.878;2023-11-21T12:35:30;3.10;;;1.10;;
19396;SDS011;9834;48.076;11.878;2023-11-21T12:37:59;0.67;;;0.43;;
19396;SDS011;9834;48.076;11.878;2023-11-21T12:40:28;1.60;;;0.47;;
19396;SDS011;9834;48.076;11.878;2023-11-21T12:43:00;0.70;;;0.70;;
19396;SDS011;9834;48.076;11.878;2023-11-21T12:45:30;0.60;;;0.60;;
19396;SDS011;9834;48.076;11.878;2023-11-21T12:47:58;0.60;;;0.60;;
19396;SDS011;9834;48.076;11.878;2023-11-21T12:50:29;0.57;;;0.50;;
19396;SDS011;9834;48.076;11.878;2023-11-21T12:52:59;1.20;;;0.87;;
19396;SDS011;9834;48.076;11.878;2023-11-21T12:55:31;3.90;;;0.60;;
19396;SDS011;9834;48.076;11.878;2023-11-21T12:58:04;1.17;;;0.57;;
19396;SDS011;9834;48.076;11.878;2023-11-21T13:00:34;1.77;;;0.70;;
19396;SDS011;9834;48.076;11.878;2023-11-21T13:03:03;1.17;;;0.60;;
19396;SDS011;9834;48.076;11.878;2023-11-21T13:05:32;1.23;;;0.60;;
19396;SDS011;9834;48.076;11.878;2023-11-21T13:08:04;0.63;;;0.40;;
19396;SDS011;9834;48.076;11.878;2023-11-21T13:10:36;0.97;;;0.80;;
19396;SDS011;9834;48.076;11.878;2023-11-21T13:13:10;0.53;;;0.53;;
19396;SDS011;9834;48.076;11.878;2023-11-21T13:15:47;2.40;;;0.60;;
19396;SDS011;9834;48.076;11.878;2023-11-21T13:18:19;0.60;;;0.37;;
19396;SDS011;9834;48.076;11.878;2023-11-21T13:20:48;1.87;;;0.37;;
19396;SDS011;9834;48.076;11.878;2023-11-21T13:23:16;0.47;;;0.47;;
19396;SDS011;9834;48.076;11.878;2023-11-21T13:25:43;0.67;;;0.53;;
19396;SDS011;9834;48.076;11.878;2023-11-21T13:28:17;2.97;;;1.10;;
19396;SDS011;9834;48.076;11.878;2023-11-21T13:30:50;0.57;;;0.57;;
19396;SDS011;9834;48.076;11.878;2023-11-21T13:33:28;0.50;;;0.50;;
19396;SDS011;9834;48.076;11.878;2023-11-21T13:35:55;0.67;;;0.40;;
19396;SDS011;9834;48.076;11.878;2023-11-21T13:38:24;0.60;;;0.60;;
19396;SDS011;9834;48.076;11.878;2023-11-21T13:40:57;0.37;;;0.37;;
19396;SDS011;9834;48.076;11.878;2023-11-21T13:43:26;0.40;;;0.40;;
19396;SDS011;9834;48.076;11.878;2023-11-21T13:45:54;0.40;;;0.33;;
19396;SDS011;9834;48.076;11.878;2023-11-21T13:48:28;0.40;;;0.40;;
19396;SDS011;9834;48.076;11.878;2023-11-21T13:51:06;0.30;;;0.30;;
19396;SDS011;9834;48.076;11.878;2023-11-21T13:53:41;0.10;;;0.10;;
19396;SDS011;9834;48.076;11.878;2023-11-21T13:56:15;0.20;;;0.20;;
19396;SDS011;9834;48.076;11.878;2023-11-21T13:58:48;0.10;;;0.10;;
19396;SDS011;9834;48.076;11.878;2023-11-21T14:01:23;0.20;;;0.20;;
19396;SDS011;9834;48.076;11.878;2023-11-21T14:04:18;0.30;;;0.30;;
19396;SDS011;9834;48.076;11.878;2023-11-21T14:07:00;0.50;;;0.50;;
19396;SDS011;9834;48.076;11.878;2023-11-21T14:09:42;0.23;;;0.23;;
19396;SDS011;9834;48.076;11.878;2023-11-21T14:12:10;0.20;;;0.20;;
19396;SDS011;9834;48.076;11.878;2023-11-21T14:14:42;0.50;;;0.40;;
19396;SDS011;9834;48.076;11.878;2023-11-21T14:17:15;0.10;;;0.10;;
19396;SDS011;9834;48.076;11.878;2023-11-21T14:19:46;0.20;;;0.20;;
19396;SDS011;9834;48.076;11.878;2023-11-21T14:22:14;0.30;;;0.30;;
19396;SDS011;9834;48.076;11.878;2023-11-21T14:24:44;0.30;;;0.30;;
19396;SDS011;9834;48.076;11.878;2023-11-21T14:27:12;1.27;;;0.30;;
19396;SDS011;9834;48.076;11.878;2023-11-21T14:29:44;0.70;;;0.53;;
19396;SDS011;9834;48.076;11.878;2023-11-21T14:32:17;0.20;;;0.20;;
19396;SDS011;9834;48.076;11.878;2023-11-21T14:34:44;0.30;;;0.30;;
19396;SDS011;9834;48.076;11.878;2023-11-21T14:37:15;0.77;;;0.40;;
19396;SDS011;9834;48.076;11.878;2023-11-21T14:39:45;0.10;;;0.10;;
19396;SDS011;9834;48.076;11.878;2023-11-21T14:42:15;0.30;;;0.30;;
19396;SDS011;9834;48.076;11.878;2023-11-21T14:44:52;0.30;;;0.30;;
19396;SDS011;9834;48.076;11.878;2023-11-21T14:47:25;0.60;;;0.30;;
19396;SDS011;9834;48.076;11.878;2023-11-21T14:49:52;1.07;;;0.43;;
19396;SDS011;9834;48.076;11.878;2023-11-21T14:52:29;0.27;;;0.27;;
19396;SDS011;9834;48.076;11.878;2023-11-21T14:54:59;0.30;;;0.30;;
19396;SDS011;9834;48.076;11.878;2023-11-21T14:57:43;0.30;;;0.30;;
19396;SDS011;9834;48.076;11.878;2023-11-21T15:00:16;1.33;;;0.50;;
19396;SDS011;9834;48.076;11.878;2023-11-21T15:03:03;1.00;;;0.70;;
19396;SDS011;9834;48.076;11.878;2023-11-21T15:05:32;0.30;;;0.30;;
19396;SDS011;9834;48.076;11.878;2023-11-21T15:08:00;0.40;;;0.40;;
19396;SDS011;9834;48.076;11.878;2023-11-21T15:10:44;0.50;;;0.50;;
19396;SDS011;9834;48.076;11.878;2023-11-21T15:13:12;0.93;;;0.90;;